createdAt,value
2017-11-21T00:01:33.587Z,3.60
2017-11-21T00:04:03.420Z,3.20
2017-11-21T00:06:32.506Z,3.50
2017-11-21T00:09:01.592Z,3.27
2017-11-21T00:11:30.662Z,3.33
2017-11-21T00:13:58.993Z,3.33
2017-11-21T00:16:27.316Z,3.57
2017-11-21T00:18:55.688Z,3.20
2017-11-21T00:21:24.010Z,3.20
2017-11-21T00:23:52.337Z,3.33
2017-11-21T00:26:20.686Z,3.33
2017-11-21T00:28:49.003Z,3.20
2017-11-21T00:31:17.324Z,3.27
2017-11-21T00:33:45.665Z,3.23
2017-11-21T00:36:13.983Z,3.80
2017-11-21T00:38:42.329Z,3.33
2017-11-21T00:41:10.007Z,3.40
2017-11-21T00:43:39.098Z,3.30
2017-11-21T00:46:08.193Z,3.10
2017-11-21T00:48:37.303Z,3.27
2017-11-21T00:51:05.621Z,3.50
2017-11-21T00:53:33.955Z,3.00
2017-11-21T00:56:02.275Z,3.80
2017-11-21T00:58:31.185Z,3.10
2017-11-21T01:00:59.671Z,2.93
2017-11-21T01:03:28.298Z,3.60
2017-11-21T01:05:56.622Z,3.23
2017-11-21T01:08:24.957Z,3.27
2017-11-21T01:10:53.272Z,3.20
2017-11-21T01:13:21.596Z,3.50
2017-11-21T01:15:49.943Z,3.17
2017-11-21T01:18:19.076Z,3.17
2017-11-21T01:20:47.391Z,2.97
2017-11-21T01:23:15.741Z,3.50
2017-11-21T01:25:44.262Z,3.87
2017-11-21T01:28:12.603Z,3.03
2017-11-21T01:30:40.939Z,3.20
2017-11-21T01:33:09.690Z,3.37
2017-11-21T01:35:38.011Z,3.17
2017-11-21T01:38:06.354Z,3.47
2017-11-21T01:40:34.673Z,3.20
2017-11-21T01:43:03.001Z,3.23
2017-11-21T01:45:31.345Z,2.90
2017-11-21T01:48:00.500Z,3.20
2017-11-21T01:50:30.220Z,3.00
2017-11-21T01:52:58.849Z,3.17
2017-11-21T01:55:27.174Z,2.73
2017-11-21T01:57:56.255Z,3.13
2017-11-21T02:00:25.384Z,2.53
2017-11-21T02:03:03.972Z,2.40
2017-11-21T02:05:33.075Z,2.80
2017-11-21T02:08:02.361Z,2.30
2017-11-21T02:10:31.676Z,2.50
2017-11-21T02:13:01.690Z,2.60
2017-11-21T02:15:30.791Z,2.70
2017-11-21T02:17:59.166Z,2.13
2017-11-21T02:20:26.824Z,2.10
2017-11-21T02:22:55.970Z,2.00
2017-11-21T02:25:23.957Z,1.90
2017-11-21T02:27:52.056Z,1.97
2017-11-21T02:30:20.478Z,1.80
2017-11-21T02:32:48.194Z,1.60
2017-11-21T02:35:16.847Z,1.80
2017-11-21T02:37:45.443Z,1.50
2017-11-21T02:40:13.845Z,1.60
2017-11-21T02:42:42.280Z,1.80
2017-11-21T02:45:10.275Z,1.70
2017-11-21T02:47:38.281Z,1.60
2017-11-21T02:50:06.298Z,1.50
2017-11-21T02:52:33.984Z,1.40
2017-11-21T02:55:03.068Z,1.80
2017-11-21T02:57:31.084Z,2.30
2017-11-21T02:59:58.742Z,1.90
2017-11-21T03:02:27.068Z,1.50
2017-11-21T03:04:55.394Z,1.67
2017-11-21T03:07:23.788Z,1.40
2017-11-21T03:09:52.190Z,1.60
2017-11-21T03:12:20.750Z,1.97
2017-11-21T03:14:48.747Z,1.70
2017-11-21T03:17:17.128Z,2.00
2017-11-21T03:19:45.507Z,2.07
2017-11-21T03:22:25.054Z,2.40
2017-11-21T03:25:05.409Z,2.43
2017-11-21T03:27:33.095Z,2.20
2017-11-21T03:30:01.514Z,2.27
2017-11-21T03:32:29.495Z,2.10
2017-11-21T03:34:57.872Z,2.47
2017-11-21T03:37:25.729Z,2.43
2017-11-21T03:39:54.108Z,2.30
2017-11-21T03:42:22.454Z,2.40
2017-11-21T03:44:50.113Z,2.30
2017-11-21T03:47:18.427Z,2.80
2017-11-21T03:49:46.819Z,2.47
2017-11-21T03:52:15.919Z,2.20
2017-11-21T03:54:44.171Z,1.97
2017-11-21T03:57:12.170Z,2.47
2017-11-21T03:59:41.320Z,2.50
2017-11-21T04:02:08.980Z,2.47
2017-11-21T04:04:37.187Z,2.37
2017-11-21T04:07:05.508Z,2.90
2017-11-21T04:09:33.588Z,2.57
2017-11-21T04:12:01.920Z,2.83
2017-11-21T04:14:30.258Z,2.90
2017-11-21T04:16:58.596Z,2.83
2017-11-21T04:19:27.768Z,2.30
2017-11-21T04:21:56.090Z,2.40
2017-11-21T04:24:24.440Z,2.50
2017-11-21T04:26:53.531Z,2.20
2017-11-21T04:29:22.677Z,2.37
2017-11-21T04:31:50.347Z,2.40
2017-11-21T04:34:18.467Z,2.40
2017-11-21T04:36:47.560Z,2.40
2017-11-21T04:39:16.710Z,2.13
2017-11-21T04:41:45.080Z,2.20
2017-11-21T04:44:13.487Z,2.00
2017-11-21T04:46:41.822Z,1.90
2017-11-21T04:49:09.939Z,1.90
2017-11-21T04:51:38.256Z,2.00
2017-11-21T04:54:06.389Z,1.97
2017-11-21T04:56:34.914Z,2.20
2017-11-21T04:59:02.935Z,2.60
2017-11-21T05:01:31.299Z,2.50
2017-11-21T05:03:59.654Z,2.20
2017-11-21T05:06:27.979Z,2.37
2017-11-21T05:08:56.804Z,1.97
2017-11-21T05:11:25.123Z,2.00
2017-11-21T05:13:53.469Z,2.40
2017-11-21T05:16:21.166Z,2.13
2017-11-21T05:18:49.753Z,2.53
2017-11-21T05:21:17.608Z,2.33
2017-11-21T05:23:45.306Z,2.13
2017-11-21T05:26:13.852Z,2.27
2017-11-21T05:28:42.304Z,2.53
2017-11-21T05:31:10.165Z,2.20
2017-11-21T05:33:38.606Z,2.40
2017-11-21T05:36:09.097Z,2.23
2017-11-21T05:38:37.488Z,2.13
2017-11-21T05:41:05.816Z,2.40
2017-11-21T05:43:34.242Z,2.60
2017-11-21T05:46:02.383Z,2.40
2017-11-21T05:48:30.431Z,2.17
2017-11-21T05:50:58.776Z,2.20
2017-11-21T05:53:27.892Z,1.90
2017-11-21T05:55:56.225Z,2.20
2017-11-21T05:58:24.783Z,2.00
2017-11-21T06:00:52.771Z,2.20
2017-11-21T06:03:21.115Z,2.30
2017-11-21T06:05:49.494Z,1.90
2017-11-21T06:08:18.145Z,1.70
2017-11-21T06:10:46.651Z,1.93
2017-11-21T06:13:16.023Z,1.83
2017-11-21T06:15:45.108Z,2.00
2017-11-21T06:18:14.431Z,2.00
2017-11-21T06:20:43.114Z,2.00
2017-11-21T06:23:12.239Z,1.73
2017-11-21T06:25:40.559Z,2.10
2017-11-21T06:28:08.927Z,1.93
2017-11-21T06:30:37.253Z,2.00
2017-11-21T06:33:05.700Z,2.00
2017-11-21T06:35:34.892Z,2.30
2017-11-21T06:38:03.231Z,2.00
2017-11-21T06:40:31.546Z,2.10
2017-11-21T06:42:59.895Z,2.50
2017-11-21T06:45:27.887Z,2.33
2017-11-21T06:47:57.786Z,2.20
2017-11-21T06:50:26.106Z,2.73
2017-11-21T06:52:54.547Z,2.53
2017-11-21T06:55:22.907Z,2.60
2017-11-21T06:57:51.122Z,2.60
2017-11-21T07:00:20.222Z,2.90
2017-11-21T07:02:49.328Z,2.90
2017-11-21T07:05:17.855Z,2.63
2017-11-21T07:07:46.176Z,2.50
2017-11-21T07:10:16.361Z,2.70
2017-11-21T07:12:45.619Z,3.03
2017-11-21T07:15:13.943Z,2.50
2017-11-21T07:17:42.282Z,2.40
2017-11-21T07:20:10.599Z,2.67
2017-11-21T07:22:40.196Z,2.50
2017-11-21T07:25:08.716Z,2.50
2017-11-21T07:27:37.800Z,2.40
2017-11-21T07:30:06.910Z,2.30
2017-11-21T07:32:36.240Z,2.67
2017-11-21T07:35:04.560Z,2.40
2017-11-21T07:37:32.916Z,2.37
2017-11-21T07:40:01.434Z,2.83
2017-11-21T07:42:30.522Z,2.83
2017-11-21T07:44:59.652Z,2.40
2017-11-21T07:47:27.975Z,2.53
2017-11-21T07:49:56.293Z,2.40
2017-11-21T07:52:24.642Z,2.33
2017-11-21T07:54:53.730Z,2.10
2017-11-21T07:57:22.068Z,2.00
2017-11-21T07:59:50.399Z,2.00
2017-11-21T08:02:20.458Z,2.20
2017-11-21T08:04:48.783Z,2.20
2017-11-21T08:07:17.990Z,1.90
2017-11-21T08:09:46.420Z,1.70
2017-11-21T08:12:15.388Z,1.97
2017-11-21T08:14:44.421Z,1.37
2017-11-21T08:17:12.962Z,1.60
2017-11-21T08:19:41.275Z,1.50
2017-11-21T08:22:10.636Z,1.70
2017-11-21T08:24:38.958Z,2.07
2017-11-21T08:27:07.504Z,1.67
2017-11-21T08:29:36.024Z,1.60
2017-11-21T08:32:04.018Z,1.73
2017-11-21T08:34:33.324Z,1.67
2017-11-21T08:37:02.409Z,1.63
2017-11-21T08:39:31.497Z,1.50
2017-11-21T08:42:01.736Z,1.80
2017-11-21T08:44:30.059Z,1.70
2017-11-21T08:46:58.379Z,1.83
2017-11-21T08:49:27.479Z,1.60
2017-11-21T08:51:57.539Z,1.40
2017-11-21T08:54:25.863Z,1.40
2017-11-21T08:56:54.975Z,1.40
2017-11-21T08:59:23.291Z,1.50
2017-11-21T09:01:52.588Z,1.37
2017-11-21T09:04:20.959Z,1.50
2017-11-21T09:06:49.147Z,1.47
2017-11-21T09:09:17.465Z,1.23
2017-11-21T09:11:47.756Z,1.30
2017-11-21T09:14:16.075Z,1.23
2017-11-21T09:16:44.420Z,1.30
2017-11-21T09:19:13.777Z,1.30
2017-11-21T09:21:43.327Z,1.30
2017-11-21T09:24:11.830Z,1.17
2017-11-21T09:26:40.949Z,1.50
2017-11-21T09:29:09.267Z,1.50
2017-11-21T09:31:37.590Z,1.50
2017-11-21T09:34:05.931Z,1.50
2017-11-21T09:36:34.251Z,1.40
2017-11-21T09:39:02.571Z,1.63
2017-11-21T09:41:30.912Z,4.00
2017-11-21T09:43:59.228Z,2.47
2017-11-21T09:46:27.556Z,2.90
2017-11-21T09:48:55.887Z,1.90
2017-11-21T09:51:24.215Z,2.10
2017-11-21T09:53:52.532Z,2.00
2017-11-21T09:56:20.875Z,1.70
2017-11-21T09:58:49.198Z,1.60
2017-11-21T10:01:17.548Z,1.87
2017-11-21T10:03:46.660Z,1.43
2017-11-21T10:06:15.183Z,1.50
2017-11-21T10:08:43.714Z,1.67
2017-11-21T10:11:12.143Z,1.53
2017-11-21T10:13:40.463Z,2.10
2017-11-21T10:16:08.455Z,1.90
2017-11-21T10:18:36.788Z,1.97
2017-11-21T10:21:04.808Z,1.70
2017-11-21T10:23:33.128Z,1.43
2017-11-21T10:26:01.464Z,1.77
2017-11-21T10:28:30.558Z,1.70
2017-11-21T10:30:59.103Z,1.93
2017-11-21T10:33:27.419Z,1.60
2017-11-21T10:35:56.508Z,1.50
2017-11-21T10:38:24.519Z,2.00
2017-11-21T10:40:53.755Z,1.70
2017-11-21T10:43:22.071Z,2.10
2017-11-21T10:45:50.920Z,2.13
2017-11-21T10:48:19.442Z,2.23
2017-11-21T10:50:47.767Z,3.53
2017-11-21T10:53:16.096Z,4.60
2017-11-21T10:55:44.416Z,4.03
2017-11-21T10:58:12.072Z,4.60
2017-11-21T11:00:40.071Z,3.73
2017-11-21T11:03:08.389Z,3.80
2017-11-21T11:05:35.859Z,4.47
2017-11-21T11:08:03.355Z,3.43
2017-11-21T11:13:02.043Z,3.00
2017-11-21T11:15:29.732Z,3.10
2017-11-21T11:17:57.687Z,2.80
2017-11-21T11:20:25.349Z,2.23
2017-11-21T11:22:53.022Z,2.40
2017-11-21T11:25:21.448Z,2.83
2017-11-21T11:27:49.122Z,2.47
2017-11-21T11:30:16.998Z,2.10
2017-11-21T11:32:45.721Z,2.43
2017-11-21T11:35:15.434Z,2.33
2017-11-21T11:37:44.463Z,2.43
2017-11-21T11:40:12.319Z,2.10
2017-11-21T11:42:39.983Z,2.70
2017-11-21T11:45:07.761Z,2.50
2017-11-21T11:47:35.424Z,2.10
2017-11-21T11:50:03.075Z,2.20
2017-11-21T11:52:30.767Z,2.13
2017-11-21T11:54:58.758Z,2.30
2017-11-21T11:57:27.195Z,2.27
2017-11-21T11:59:55.402Z,1.90
2017-11-21T12:02:23.083Z,2.13
2017-11-21T12:04:51.507Z,2.60
2017-11-21T12:07:19.203Z,2.40
2017-11-21T12:09:46.863Z,2.30
2017-11-21T12:12:15.371Z,2.70
2017-11-21T12:14:44.267Z,2.50
2017-11-21T12:17:11.932Z,2.50
2017-11-21T12:19:39.599Z,2.50
2017-11-21T12:22:08.369Z,2.50
2017-11-21T12:24:36.794Z,2.90
2017-11-21T12:27:04.450Z,3.33
2017-11-21T12:29:32.138Z,2.70
2017-11-21T12:32:00.761Z,2.83
2017-11-21T12:34:28.592Z,2.80
2017-11-21T12:36:57.698Z,3.07
2017-11-21T12:39:26.156Z,2.67
2017-11-21T12:41:53.811Z,2.70
2017-11-21T12:44:22.440Z,2.70
2017-11-21T12:46:50.107Z,2.70
2017-11-21T12:49:17.776Z,3.33
2017-11-21T12:51:46.441Z,2.80
2017-11-21T12:54:16.714Z,4.00
2017-11-21T12:56:45.119Z,4.13
2017-11-21T12:59:13.043Z,3.53
2017-11-21T13:01:41.761Z,3.20
2017-11-21T13:04:09.416Z,3.20
2017-11-21T13:06:37.100Z,3.00
2017-11-21T13:09:04.779Z,3.20
2017-11-21T13:11:32.444Z,3.20
2017-11-21T13:14:00.111Z,3.23
2017-11-21T13:16:27.849Z,5.00
2017-11-21T13:18:55.707Z,3.03
2017-11-21T13:21:23.910Z,3.23
2017-11-21T13:23:51.607Z,2.93
2017-11-21T13:26:19.281Z,3.40
2017-11-21T13:28:46.936Z,3.70
2017-11-21T13:31:15.455Z,4.07
2017-11-21T13:33:44.372Z,4.97
2017-11-21T13:36:12.044Z,3.90
2017-11-21T13:38:39.728Z,4.60
2017-11-21T13:41:07.404Z,4.70
2017-11-21T13:43:35.393Z,5.83
2017-11-21T13:46:03.088Z,4.83
2017-11-21T13:48:30.756Z,5.00
2017-11-21T13:50:58.750Z,4.50
2017-11-21T13:53:26.531Z,4.10
2017-11-21T13:55:54.390Z,4.40
2017-11-21T13:58:22.048Z,4.20
2017-11-21T14:00:49.732Z,4.60
2017-11-21T14:03:17.579Z,4.83
2017-11-21T14:05:45.248Z,4.07
2017-11-21T14:08:12.920Z,4.50
2017-11-21T14:10:40.776Z,4.63
2017-11-21T14:13:08.767Z,4.03
2017-11-21T14:15:36.443Z,4.30
2017-11-21T14:18:04.104Z,4.17
2017-11-21T14:20:31.769Z,4.10
2017-11-21T14:22:59.569Z,4.10
2017-11-21T14:25:28.191Z,3.70
2017-11-21T14:27:56.764Z,3.70
2017-11-21T14:30:24.976Z,4.10
2017-11-21T14:32:53.298Z,3.87
2017-11-21T14:35:21.285Z,3.67
2017-11-21T14:37:48.972Z,4.07
2017-11-21T14:40:16.832Z,5.03
2017-11-21T14:42:44.832Z,3.97
2017-11-21T14:45:13.601Z,3.73
2017-11-21T14:47:41.259Z,4.63
2017-11-21T14:50:09.243Z,4.20
2017-11-21T14:52:37.878Z,3.67
2017-11-21T14:55:05.544Z,4.20
2017-11-21T14:57:33.209Z,4.40
2017-11-21T15:00:01.408Z,4.40
2017-11-21T15:02:29.066Z,5.17
2017-11-21T15:04:57.055Z,6.00
2017-11-21T15:07:25.515Z,4.60
2017-11-21T15:09:53.170Z,4.27
2017-11-21T15:12:20.824Z,5.13
2017-11-21T15:14:48.954Z,5.53
2017-11-21T15:17:16.421Z,5.47
2017-11-21T15:19:44.074Z,5.33
2017-11-21T15:22:12.416Z,4.73
2017-11-21T15:24:40.839Z,4.80
2017-11-21T15:27:08.499Z,5.30
2017-11-21T15:29:36.275Z,5.30
2017-11-21T15:32:03.932Z,5.20
2017-11-21T15:34:32.260Z,5.67
2017-11-21T15:37:01.048Z,7.60
2017-11-21T15:39:30.139Z,6.00
2017-11-21T15:41:59.170Z,5.23
2017-11-21T15:44:27.512Z,5.77
2017-11-21T15:46:56.289Z,5.77
2017-11-21T15:49:24.612Z,8.00
2017-11-21T15:51:52.964Z,6.80
2017-11-21T15:54:22.052Z,5.80
2017-11-21T15:56:51.720Z,8.57
2017-11-21T15:59:19.767Z,8.80
2017-11-21T16:01:47.775Z,11.80
2017-11-21T16:04:16.118Z,13.83
2017-11-21T16:06:44.661Z,24.43
2017-11-21T16:09:13.755Z,21.87
2017-11-21T16:11:42.860Z,36.57
2017-11-21T16:14:11.211Z,47.53
2017-11-21T16:16:39.982Z,36.37
2017-11-21T16:19:08.520Z,28.13
2017-11-21T16:21:37.051Z,24.70
2017-11-21T16:24:05.388Z,40.60
2017-11-21T16:26:33.712Z,23.80
2017-11-21T16:29:02.494Z,26.23
2017-11-21T16:31:30.822Z,17.33
2017-11-21T16:33:58.833Z,46.97
2017-11-21T16:36:27.220Z,31.17
2017-11-21T16:38:55.544Z,31.13
2017-11-21T16:41:23.866Z,25.97
2017-11-21T16:43:52.279Z,26.97
2017-11-21T16:46:20.607Z,23.67
2017-11-21T16:48:48.936Z,24.00
2017-11-21T16:51:17.303Z,14.87
2017-11-21T16:53:45.359Z,9.57
2017-11-21T16:56:14.451Z,14.40
2017-11-21T16:58:43.662Z,5.80
2017-11-21T17:01:11.328Z,11.30
2017-11-21T17:03:39.706Z,8.63
2017-11-21T17:06:07.729Z,6.07
2017-11-21T17:08:36.090Z,5.90
2017-11-21T17:11:04.410Z,5.57
2017-11-21T17:13:33.515Z,4.40
2017-11-21T17:16:02.276Z,5.27
2017-11-21T17:18:30.603Z,4.10
2017-11-21T17:20:59.752Z,3.97
2017-11-21T17:23:28.066Z,3.80
2017-11-21T17:25:55.724Z,4.40
2017-11-21T17:28:24.871Z,3.97
2017-11-21T17:30:53.206Z,3.67
2017-11-21T17:33:21.530Z,3.77
2017-11-21T17:35:50.119Z,3.33
2017-11-21T17:38:18.756Z,3.77
2017-11-21T17:40:46.741Z,3.40
2017-11-21T17:43:14.746Z,3.47
2017-11-21T17:45:42.732Z,4.10
2017-11-21T17:48:11.815Z,4.67
2017-11-21T17:50:40.583Z,3.30
2017-11-21T17:53:08.930Z,3.60
2017-11-21T17:55:37.251Z,3.87
2017-11-21T17:58:05.262Z,4.00
2017-11-21T18:00:33.447Z,5.10
2017-11-21T18:03:01.784Z,4.53
2017-11-21T18:05:30.896Z,4.70
2017-11-21T18:07:59.223Z,3.90
2017-11-21T18:10:26.881Z,3.77
2017-11-21T18:12:55.298Z,4.67
2017-11-21T18:15:24.478Z,3.50
2017-11-21T18:17:53.246Z,6.37
2017-11-21T18:20:21.626Z,3.97
2017-11-21T18:22:50.431Z,7.23
2017-11-21T18:25:19.588Z,4.00
2017-11-21T18:27:47.948Z,52.37
2017-11-21T18:30:16.281Z,8.27
2017-11-21T18:33:05.412Z,10.33
2017-11-21T18:35:33.768Z,11.33
2017-11-21T18:38:02.104Z,21.03
2017-11-21T18:40:31.199Z,11.57
2017-11-21T18:43:00.316Z,13.27
2017-11-21T18:45:28.657Z,39.23
2017-11-21T18:47:56.991Z,13.73
2017-11-21T18:50:27.950Z,18.60
2017-11-21T18:52:56.282Z,25.30
2017-11-21T18:55:24.632Z,20.40
2017-11-21T18:57:53.182Z,28.87
2017-11-21T19:00:21.510Z,28.63
2017-11-21T19:02:49.871Z,16.83
2017-11-21T19:05:19.060Z,28.60
2017-11-21T19:07:47.387Z,26.30
2017-11-21T19:10:15.723Z,27.47
2017-11-21T19:12:44.900Z,30.90
2017-11-21T19:15:14.048Z,30.43
2017-11-21T19:17:43.355Z,33.03
2017-11-21T19:20:11.235Z,29.33
2017-11-21T19:22:39.563Z,35.57
2017-11-21T19:25:08.693Z,20.10
2017-11-21T19:27:37.034Z,26.80
2017-11-21T19:30:06.180Z,23.97
2017-11-21T19:32:34.513Z,29.50
2017-11-21T19:35:03.284Z,24.27
2017-11-21T19:37:32.382Z,24.43
2017-11-21T19:40:01.480Z,25.20
2017-11-21T19:42:31.625Z,25.77
2017-11-21T19:45:00.143Z,27.10
2017-11-21T19:47:28.542Z,52.07
2017-11-21T19:49:56.960Z,29.50
2017-11-21T19:52:25.329Z,24.17
2017-11-21T19:54:53.813Z,29.70
2017-11-21T19:57:22.147Z,26.27
2017-11-21T19:59:51.325Z,22.23
2017-11-21T20:02:19.721Z,22.03
2017-11-21T20:04:48.082Z,16.33
2017-11-21T20:07:17.235Z,15.30
2017-11-21T20:09:45.654Z,12.30
2017-11-21T20:12:13.990Z,8.37
2017-11-21T20:14:42.537Z,9.70
2017-11-21T20:17:11.770Z,10.57
2017-11-21T20:19:40.105Z,9.20
2017-11-21T20:22:09.191Z,7.90
2017-11-21T20:24:38.336Z,6.73
2017-11-21T20:27:06.828Z,6.63
2017-11-21T20:29:35.150Z,7.60
2017-11-21T20:32:04.070Z,7.70
2017-11-21T20:34:32.411Z,6.60
2017-11-21T20:37:01.171Z,6.80
2017-11-21T20:39:29.515Z,6.60
2017-11-21T20:41:57.834Z,6.70
2017-11-21T20:44:26.164Z,6.40
2017-11-21T20:46:54.222Z,6.87
2017-11-21T20:49:22.216Z,7.03
2017-11-21T20:51:50.539Z,8.90
2017-11-21T20:54:19.321Z,8.40
2017-11-21T20:56:47.651Z,8.83
2017-11-21T20:59:15.650Z,8.17
2017-11-21T21:01:43.740Z,7.17
2017-11-21T21:04:13.644Z,7.10
2017-11-21T21:06:42.511Z,7.37
2017-11-21T21:09:11.104Z,6.67
2017-11-21T21:11:39.455Z,7.53
2017-11-21T21:14:07.980Z,7.17
2017-11-21T21:16:36.536Z,6.90
2017-11-21T21:19:04.855Z,6.50
2017-11-21T21:21:33.943Z,6.13
2017-11-21T21:24:03.059Z,6.73
2017-11-21T21:26:31.052Z,7.53
2017-11-21T21:28:59.375Z,7.10
2017-11-21T21:31:28.169Z,6.57
2017-11-21T21:33:57.467Z,8.20
2017-11-21T21:36:26.551Z,7.07
2017-11-21T21:38:54.901Z,6.93
2017-11-21T21:41:23.234Z,6.83
2017-11-21T21:43:51.560Z,6.80
2017-11-21T21:46:20.679Z,7.00
2017-11-21T21:48:49.614Z,6.97
2017-11-21T21:51:17.608Z,6.53
2017-11-21T21:53:45.947Z,6.77
2017-11-21T21:56:13.956Z,7.20
2017-11-21T21:58:42.288Z,8.43
2017-11-21T22:01:10.692Z,6.90
2017-11-21T22:03:39.015Z,7.87
2017-11-21T22:06:07.051Z,7.20
2017-11-21T22:08:36.150Z,8.13
2017-11-21T22:11:04.147Z,6.60
2017-11-21T22:13:32.343Z,7.03
2017-11-21T22:16:01.745Z,7.37
2017-11-21T22:18:30.834Z,6.90
2017-11-21T22:20:59.924Z,7.03
2017-11-21T22:23:29.043Z,7.50
2017-11-21T22:25:57.423Z,6.77
2017-11-21T22:28:25.747Z,6.50
2017-11-21T22:30:54.171Z,6.27
2017-11-21T22:33:22.491Z,6.03
2017-11-21T22:35:50.895Z,6.87
2017-11-21T22:38:20.260Z,5.57
2017-11-21T22:40:49.231Z,5.67
2017-11-21T22:43:17.558Z,5.90
2017-11-21T22:45:45.924Z,5.77
2017-11-21T22:48:14.253Z,6.23
2017-11-21T22:50:42.245Z,6.33
2017-11-21T22:53:10.614Z,6.20
2017-11-21T22:55:38.932Z,6.20
2017-11-21T22:58:07.258Z,6.27
2017-11-21T23:00:35.629Z,6.50
2017-11-21T23:03:03.951Z,6.70
2017-11-21T23:05:32.283Z,6.00
2017-11-21T23:08:00.630Z,6.13
2017-11-21T23:10:29.383Z,5.90
2017-11-21T23:12:57.711Z,6.77
2017-11-21T23:15:26.046Z,5.70
2017-11-21T23:17:54.372Z,6.33
2017-11-21T23:20:22.691Z,4.37
2017-11-21T23:22:51.867Z,5.47
2017-11-21T23:25:20.780Z,5.50
2017-11-21T23:27:50.558Z,5.10
2017-11-21T23:30:18.963Z,5.43
2017-11-21T23:32:47.280Z,4.90
2017-11-21T23:35:15.774Z,5.97
2017-11-21T23:37:44.105Z,5.27
2017-11-21T23:40:12.634Z,5.27
2017-11-21T23:42:40.974Z,4.73
2017-11-21T23:45:09.297Z,5.20
2017-11-21T23:47:37.632Z,4.40
2017-11-21T23:50:06.224Z,5.00
2017-11-21T23:52:35.312Z,5.10
2017-11-21T23:55:03.635Z,4.70
2017-11-21T23:57:31.975Z,5.10
